Birsay, Canada
Current Conditions -  °F | °C
As of 8:18 AM on Monday 22 Dec 2014 (Local Time) from CYYN Reporting Station
Light Snow Light Snow  
Wind Chill:   Ceiling: NA
Heat Index: 19°   Visibility: 2mi
Dew Point: 19°   Wind: 20mph
Humidity: 100%   Direction: 310°NW
Pressure: 29.63"   Gusts: NA
Location:  51.1°N, 106.98°W
Report Text: CYYN 221418Z AUTO 31017KT 2SM -SN M07/M07 A2963 RMK CLD MISG SLP076
Loading
Personal Weather Stations






























Interactive Weather Map New forecast layout! Learn more

10-Day Weather Forecast

Advertisements
Track Severe Weather on mobile